Flight Track Log - Related Links

Times and Time Zones

All times are in EDT time to prevent confusion due to time zone crossing. See the N1ER flight status page for this flight to view local times or setup timezone preferences in your user account.

Time Position Orientation Groundspeed Altitude Reporting Facility
EDT Latitude Longitude Course Direction KTS MPH feet Rate Location/Type
Fri 11:39:30 AM 28.0000 -82.7167 336° Northwest 97 112 2,500  Level Tampa TRACON
Fri 11:40:30 AM 28.0333 -82.7167 360° North 95 109 3,400 762 Climbing Tampa TRACON
Fri 11:41:36 AM 28.0667 -82.7333 336° Northwest 121 139 4,100 286 Climbing Tampa TRACON
Fri 11:42:36 AM 28.1000 -82.7167 24° Northeast 140 161 4,000 -105 Descending Tampa TRACON
Fri 11:43:30 AM 28.1333 -82.7167 360° North 138 159 3,900 50 Descending Tampa TRACON
Fri 11:44:36 AM 28.1667 -82.6833 41° Northeast 136 157 4,100 95 Climbing Tampa TRACON
Fri 11:45:36 AM 28.2000 -82.6833 360° North 142 163 4,100 350 Level Tampa TRACON
Fri 11:46:36 AM 28.2167 -82.6333 69° East 119 137 4,800 450 Climbing Tampa TRACON
Fri 11:47:36 AM 28.2167 -82.6000 90° East 141 162 5,000 157 Climbing Tampa TRACON
Fri 11:48:31 AM 28.2167 -82.5500 90° East 148 170 5,100 52 Climbing Tampa TRACON
Fri 11:49:31 AM 28.2333 -82.5167 60° Northeast 146 168 5,100  Level Tampa TRACON
Fri 11:50:31 AM 28.2333 -82.4667 90° East 149 171 5,100 -53 Level Tampa TRACON
Fri 11:51:25 AM 28.2333 -82.4167 90° East 151 174 5,000 -48 Descending Tampa TRACON
Fri 11:52:37 AM 28.2500 -82.3667 69° East 149 171 5,000  Level Tampa TRACON
Fri 11:53:37 AM 28.2500 -82.3167 90° East 146 168 5,000  Level Tampa TRACON
Fri 11:54:37 AM 28.2500 -82.2833 90° East 148 170 5,000  Level Tampa TRACON
Fri 11:55:25 AM 28.2667 -82.2333 69° East 149 171 5,000  Level Tampa TRACON
Fri 11:56:25 AM 28.2667 -82.2000 90° East 148 170 5,000  Level Tampa TRACON
Fri 11:57:31 AM 28.2667 -82.1500 90° East 146 168 5,000  Level Tampa TRACON
Fri 11:59:59 AM 28.2833 -82.0333 81° East 147 169 5,000  Level Orlando TRACON
Fri 12:00:53 PM 28.3000 -81.9833 69° East 148 170 5,000  Level Orlando TRACON
Fri 12:01:59 PM 28.3000 -81.9333 90° East 148 170 5,000  Level Orlando TRACON
Fri 12:02:59 PM 28.3333 -81.9167 24° Northeast 145 167 5,000  Level Orlando TRACON
Fri 12:04:00 PM 28.3667 -81.8833 41° Northeast 145 167 5,000  Level Orlando TRACON
Fri 12:05:00 PM 28.4000 -81.8500 41° Northeast 146 168 5,000  Level Orlando TRACON
Fri 12:06:00 PM 28.4333 -81.8167 41° Northeast 147 169 5,000  Level Orlando TRACON
Fri 12:07:00 PM 28.4667 -81.8000 24° Northeast 144 166 5,000  Level Orlando TRACON
Fri 12:08:00 PM 28.5000 -81.7667 41° Northeast 147 169 5,000  Level Orlando TRACON
Fri 12:09:00 PM 28.5333 -81.7333 41° Northeast 149 171 5,000 47 Level Orlando TRACON
Fri 12:10:07 PM 28.5667 -81.7000 41° Northeast 147 169 5,100  Climbing Orlando TRACON
Fri 12:11:01 PM 28.6000 -81.6833 24° Northeast 145 167 5,000 -50 Descending Orlando TRACON
Fri 12:12:07 PM 28.6333 -81.6500 41° Northeast 151 174 5,000  Level Orlando TRACON
Fri 12:13:02 PM 28.6500 -81.6167 60° Northeast 151 174 5,000  Level Orlando TRACON
Fri 12:14:08 PM 28.7000 -81.5833 30° Northeast 150 173 5,000  Level Orlando TRACON
Fri 12:15:50 PM 28.7439 -81.5406 41° Northeast 152 175 5,000 37 Level Jacksonville Center
Fri 12:16:50 PM 28.7769 -81.5069 42° Northeast 151 174 5,100  Climbing Jacksonville Center
Fri 12:17:51 PM 28.8142 -81.4781 34° Northeast 151 174 5,000  Descending Jacksonville Center
Fri 12:18:52 PM 28.8472 -81.4467 40° Northeast 155 178 5,100  Climbing Jacksonville Center
Fri 12:19:53 PM 28.8803 -81.4131 42° Northeast 155 178 5,000 -49 Descending Jacksonville Center
Fri 12:20:54 PM 28.9111 -81.3842 39° Northeast 154 177 5,000  Level Jacksonville Center
Fri 12:21:55 PM 28.9442 -81.3481 44° Northeast 156 180 5,000 -98 Level Jacksonville Center
Fri 12:22:56 PM 28.9750 -81.3119 46° Northeast 155 178 4,800 -492 Descending Jacksonville Center
Fri 12:23:57 PM 29.0017 -81.2733 52° Northeast 160 184 4,000 -689 Descending Jacksonville Center
Fri 12:24:58 PM 29.0283 -81.2375 50° Northeast 145 167 3,400 -492 Descending Jacksonville Center
Fri 12:25:59 PM 29.0464 -81.1944 64° Northeast 146 168 3,000 -197 Descending Jacksonville Center
Fri 12:27:00 PM 29.0761 -81.1642 30° Northeast  Level Estimated
Fri 12:27:00 PM 29.0711 -81.1536 30° Northeast 150 173 3,000  Level Jacksonville Center
Fri 12:28:01 PM 29.0914 -81.1128 60° Northeast 150 173 3,000  Level Jacksonville Center
Fri 12:29:02 PM 29.1117 -81.0697 62° Northeast 149 171 3,000  Level Jacksonville Center
Fri 12:30:03 PM 29.1319 -81.0242 63° Northeast 151 174 3,000  Level Jacksonville Center
Fri 12:31:04 PM 29.1500 -80.9808 64° Northeast 156 180 3,000  Level Jacksonville Center
Fri 12:32:04 PM 29.1681 -80.9356 65° Northeast 156 180 3,000  Level Jacksonville Center
Fri 12:33:05 PM 29.1842 -80.8947 66° East 152 175 3,000  Level Jacksonville Center
Fri 12:34:06 PM 29.2042 -80.8444 65° Northeast 152 175 3,000  Level Jacksonville Center
Fri 12:35:07 PM 29.2203 -80.8011 67° East 152 175 3,000  Level Jacksonville Center
Fri 12:36:08 PM 29.2494 -80.7958 North 146 168 3,000 49 Level Jacksonville Center
Fri 12:37:09 PM 29.2583 -80.8383 283° West 140 161 3,100  Climbing Jacksonville Center
Fri 12:38:10 PM 29.2550 -80.8814 265° West 145 167 3,000 -492 Descending Jacksonville Center
Fri 12:39:11 PM 29.2306 -80.9294 240° Southwest 157 181 2,100 -689 Descending Jacksonville Center
Fri 12:40:12 PM 29.2167 -80.9653 246° West 122 140 1,600 -393 Descending Jacksonville Center
Fri 12:41:13 PM 29.2044 -80.9967 246° West 101 116 1,300 -492 Descending Jacksonville Center
Fri 12:42:14 PM 29.1925 -81.0278 246° West 103 119 600 -689 Descending Jacksonville Center
Fri 12:44:00 PM 29.1667 -81.0500 161° South  Level FlightAware Approximate
Fri 12:51:00 PM 29.1799 -81.0581 161° South  Level Estimated
Fri 12:52:00 PM 29.1799 -81.0581 161° South  Level Estimated
Fri 12:53:00 PM 29.1799 -81.0581 161° South  Level Estimated

Login

Don't have an account? Register now (free) for customized features, flight alerts, and more!